createdAt,value
2016-08-21T00:00:18.587Z,970.71
2016-08-21T00:01:18.554Z,970.69
2016-08-21T00:02:18.522Z,970.72
2016-08-21T00:03:18.489Z,970.73
2016-08-21T00:04:18.456Z,970.74
2016-08-21T00:05:18.423Z,970.72
2016-08-21T00:06:18.390Z,970.7
2016-08-21T00:07:18.357Z,970.73
2016-08-21T00:08:18.324Z,970.75
2016-08-21T00:09:18.293Z,970.73
2016-08-21T00:10:18.258Z,970.72
2016-08-21T00:11:18.228Z,970.7
2016-08-21T00:12:18.192Z,970.7
2016-08-21T00:13:18.161Z,970.66
2016-08-21T00:14:18.127Z,970.63
2016-08-21T00:15:18.094Z,970.6
2016-08-21T00:16:18.063Z,970.59
2016-08-21T00:17:18.028Z,970.59
2016-08-21T00:18:17.997Z,970.61
2016-08-21T00:19:17.964Z,970.54
2016-08-21T00:20:17.931Z,970.58
2016-08-21T00:21:17.898Z,970.61
2016-08-21T00:22:17.864Z,970.57
2016-08-21T00:23:17.833Z,970.57
2016-08-21T00:24:17.799Z,970.56
2016-08-21T00:25:17.766Z,970.59
2016-08-21T00:26:17.732Z,970.59
2016-08-21T00:27:17.702Z,970.59
2016-08-21T00:28:17.666Z,970.63
2016-08-21T00:29:17.632Z,970.6
2016-08-21T00:30:17.601Z,970.63
2016-08-21T00:31:17.569Z,970.59
2016-08-21T00:32:17.535Z,970.61
2016-08-21T00:33:17.502Z,970.59
2016-08-21T00:34:17.471Z,970.57
2016-08-21T00:35:17.435Z,970.55
2016-08-21T00:36:17.404Z,970.57
2016-08-21T00:37:17.371Z,970.58
2016-08-21T00:38:17.338Z,970.6
2016-08-21T00:39:17.305Z,970.59
2016-08-21T00:40:17.270Z,970.59
2016-08-21T00:41:17.240Z,970.58
2016-08-21T00:42:17.205Z,970.56
2016-08-21T00:43:17.172Z,970.54
2016-08-21T00:44:17.141Z,970.56
2016-08-21T00:45:17.106Z,970.56
2016-08-21T00:46:17.073Z,970.58
2016-08-21T00:47:17.041Z,970.54
2016-08-21T00:48:17.007Z,970.6
2016-08-21T00:49:16.975Z,970.56
2016-08-21T00:50:16.941Z,970.56
2016-08-21T00:51:16.909Z,970.58
2016-08-21T00:52:16.874Z,970.53
2016-08-21T00:53:16.842Z,970.56
2016-08-21T00:54:16.809Z,970.56
2016-08-21T00:55:16.776Z,970.56
2016-08-21T00:56:16.743Z,970.53
2016-08-21T00:57:16.710Z,970.53
2016-08-21T00:58:16.676Z,970.53
2016-08-21T00:59:16.644Z,970.53
2016-08-21T01:00:16.613Z,970.49
2016-08-21T01:01:16.578Z,970.52
2016-08-21T01:02:16.545Z,970.52
2016-08-21T01:03:16.513Z,970.53
2016-08-21T01:04:16.483Z,970.5
2016-08-21T01:05:16.445Z,970.53
2016-08-21T01:06:16.414Z,970.5
2016-08-21T01:07:16.383Z,970.47
2016-08-21T01:08:16.348Z,970.47
2016-08-21T01:09:16.315Z,970.45
2016-08-21T01:10:16.286Z,970.44
2016-08-21T01:11:16.250Z,970.43
2016-08-21T01:12:16.217Z,970.42
2016-08-21T01:13:16.185Z,970.43
2016-08-21T01:14:16.152Z,970.42
2016-08-21T01:15:16.116Z,970.41
2016-08-21T01:16:16.085Z,970.42
2016-08-21T01:17:16.069Z,970.41
2016-08-21T01:18:16.024Z,970.45
2016-08-21T01:19:15.985Z,970.47
2016-08-21T01:20:15.954Z,970.47
2016-08-21T01:21:15.922Z,970.45
2016-08-21T01:22:15.887Z,970.45
2016-08-21T01:23:15.859Z,970.44
2016-08-21T01:24:15.822Z,970.42
2016-08-21T01:25:15.789Z,970.41
2016-08-21T01:26:15.755Z,970.44
2016-08-21T01:27:15.724Z,970.44
2016-08-21T01:28:15.691Z,970.46
2016-08-21T01:29:15.659Z,970.47
2016-08-21T01:30:15.624Z,970.44
2016-08-21T01:31:15.592Z,970.41
2016-08-21T01:32:15.560Z,970.43
2016-08-21T01:33:15.526Z,970.49
2016-08-21T01:34:15.493Z,970.43
2016-08-21T01:35:15.461Z,970.44
2016-08-21T01:36:15.435Z,970.41
2016-08-21T01:37:15.397Z,970.44
2016-08-21T01:38:15.361Z,970.45
2016-08-21T01:39:15.331Z,970.45
2016-08-21T01:40:15.298Z,970.43
2016-08-21T01:41:15.263Z,970.43
2016-08-21T01:42:15.229Z,970.42
2016-08-21T01:43:15.197Z,970.4
2016-08-21T01:44:15.165Z,970.41
2016-08-21T01:45:15.130Z,970.43
2016-08-21T01:46:15.099Z,970.39
2016-08-21T01:47:15.064Z,970.38
2016-08-21T01:48:15.033Z,970.36
2016-08-21T01:49:14.998Z,970.33
2016-08-21T01:50:14.965Z,970.38
2016-08-21T01:51:14.934Z,970.35
2016-08-21T01:52:14.899Z,970.32
2016-08-21T01:53:14.868Z,970.33
2016-08-21T01:54:14.833Z,970.36
2016-08-21T01:55:14.799Z,970.36
2016-08-21T01:56:14.767Z,970.33
2016-08-21T01:57:14.735Z,970.33
2016-08-21T01:58:14.703Z,970.34
2016-08-21T01:59:14.667Z,970.37
2016-08-21T02:00:14.636Z,970.36
2016-08-21T02:01:14.603Z,970.38
2016-08-21T02:02:14.575Z,970.4
2016-08-21T02:03:14.535Z,970.41
2016-08-21T02:04:14.502Z,970.4
2016-08-21T02:05:14.470Z,970.42
2016-08-21T02:06:14.435Z,970.41
2016-08-21T02:07:14.404Z,970.4
2016-08-21T02:08:14.369Z,970.38
2016-08-21T02:09:14.337Z,970.4
2016-08-21T02:10:14.304Z,970.38
2016-08-21T02:11:14.270Z,970.36
2016-08-21T02:12:14.236Z,970.37
2016-08-21T02:13:14.206Z,970.38
2016-08-21T02:14:14.168Z,970.38
2016-08-21T02:15:14.138Z,970.36
2016-08-21T02:16:14.104Z,970.36
2016-08-21T02:17:14.072Z,970.36
2016-08-21T02:18:14.038Z,970.35
2016-08-21T02:19:14.004Z,970.35
2016-08-21T02:20:13.973Z,970.35
2016-08-21T02:21:13.937Z,970.32
2016-08-21T02:22:13.905Z,970.34
2016-08-21T02:23:13.873Z,970.33
2016-08-21T02:24:13.840Z,970.32
2016-08-21T02:25:13.807Z,970.35
2016-08-21T02:26:13.773Z,970.34
2016-08-21T02:27:13.740Z,970.37
2016-08-21T02:28:13.707Z,970.32
2016-08-21T02:29:13.673Z,970.29
2016-08-21T02:30:13.640Z,970.28
2016-08-21T02:31:13.609Z,970.28
2016-08-21T02:32:13.573Z,970.33
2016-08-21T02:33:13.543Z,970.32
2016-08-21T02:34:13.508Z,970.29
2016-08-21T02:35:13.473Z,970.3
2016-08-21T02:36:13.442Z,970.25
2016-08-21T02:37:13.408Z,970.25
2016-08-21T02:38:13.376Z,970.25
2016-08-21T02:39:13.342Z,970.28
2016-08-21T02:40:13.308Z,970.23
2016-08-21T02:41:13.276Z,970.23
2016-08-21T02:42:13.242Z,970.25
2016-08-21T02:43:13.209Z,970.18
2016-08-21T02:44:13.174Z,970.17
2016-08-21T02:45:13.141Z,970.15
2016-08-21T02:46:13.109Z,970.17
2016-08-21T02:47:13.074Z,970.13
2016-08-21T02:48:13.042Z,970.13
2016-08-21T02:49:13.008Z,970.13
2016-08-21T02:50:12.973Z,970.12
2016-08-21T02:51:12.943Z,970.18
2016-08-21T02:52:12.957Z,970.15
2016-08-21T02:53:12.877Z,970.13
2016-08-21T02:54:12.841Z,970.13
2016-08-21T02:55:12.807Z,970.13
2016-08-21T02:56:12.773Z,970.11
2016-08-21T02:57:12.741Z,970.13
2016-08-21T02:58:12.707Z,970.1
2016-08-21T02:59:12.674Z,970.08
2016-08-21T03:00:12.640Z,970.08
2016-08-21T03:01:12.605Z,970.08
2016-08-21T03:02:12.572Z,970.08
2016-08-21T03:03:12.539Z,970
2016-08-21T03:04:12.503Z,969.99
2016-08-21T03:05:12.475Z,969.99
2016-08-21T03:06:12.439Z,969.99
2016-08-21T03:07:12.406Z,969.98
2016-08-21T03:08:12.369Z,970
2016-08-21T03:09:12.338Z,969.95
2016-08-21T03:10:12.305Z,969.97
2016-08-21T03:11:12.271Z,970.01
2016-08-21T03:12:12.234Z,969.96
2016-08-21T03:13:12.202Z,969.94
2016-08-21T03:14:12.170Z,969.98
2016-08-21T03:15:12.143Z,969.94
2016-08-21T03:16:12.101Z,969.94
2016-08-21T03:17:12.068Z,969.95
2016-08-21T03:18:12.033Z,969.94
2016-08-21T03:19:11.999Z,969.95
2016-08-21T03:20:11.968Z,969.96
2016-08-21T03:21:11.933Z,969.93
2016-08-21T03:22:11.900Z,969.97
2016-08-21T03:23:11.865Z,969.96
2016-08-21T03:24:11.831Z,969.97
2016-08-21T03:25:11.798Z,969.93
2016-08-21T03:26:11.763Z,969.96
2016-08-21T03:27:11.729Z,970.01
2016-08-21T03:28:11.696Z,970
2016-08-21T03:29:11.660Z,970.01
2016-08-21T03:30:11.629Z,970.01
2016-08-21T03:31:11.591Z,970.02
2016-08-21T03:32:11.558Z,970.01
2016-08-21T03:33:11.524Z,969.97
2016-08-21T03:34:11.491Z,970
2016-08-21T03:35:11.457Z,969.98
2016-08-21T03:36:11.422Z,969.98
2016-08-21T03:37:11.393Z,970
2016-08-21T03:38:11.354Z,969.96
2016-08-21T03:39:11.323Z,969.98
2016-08-21T03:40:11.287Z,969.95
2016-08-21T03:41:11.253Z,969.97
2016-08-21T03:42:11.219Z,970
2016-08-21T03:43:11.184Z,970.01
2016-08-21T03:44:11.152Z,969.99
2016-08-21T03:45:11.117Z,970
2016-08-21T03:46:11.083Z,969.96
2016-08-21T03:47:11.051Z,970.01
2016-08-21T03:48:11.017Z,970.04
2016-08-21T03:49:10.980Z,970.05
2016-08-21T03:50:10.946Z,970.03
2016-08-21T03:51:10.917Z,970.07
2016-08-21T03:52:10.877Z,970.02
2016-08-21T03:53:10.843Z,970.05
2016-08-21T03:54:10.809Z,970.04
2016-08-21T03:55:10.777Z,970.06
2016-08-21T03:56:10.740Z,969.99
2016-08-21T03:57:10.707Z,970.02
2016-08-21T03:58:10.673Z,969.99
2016-08-21T03:59:10.640Z,970
2016-08-21T04:00:10.604Z,970.03
2016-08-21T04:01:10.570Z,970.02
2016-08-21T04:02:10.539Z,970.02
2016-08-21T04:03:10.503Z,970.05
2016-08-21T04:04:10.469Z,970.04
2016-08-21T04:05:10.433Z,970.07
2016-08-21T04:06:10.401Z,970.07
2016-08-21T04:07:10.364Z,970.09
2016-08-21T04:08:10.331Z,970.06
2016-08-21T04:09:10.296Z,970.1
2016-08-21T04:10:10.265Z,970.12
2016-08-21T04:11:10.229Z,970.13
2016-08-21T04:12:10.193Z,970.1
2016-08-21T04:13:10.159Z,970.11
2016-08-21T04:14:10.127Z,970.1
2016-08-21T04:15:10.091Z,970.13
2016-08-21T04:16:10.057Z,970.07
2016-08-21T04:17:10.022Z,970.11
2016-08-21T04:18:09.988Z,970.08
2016-08-21T04:19:09.953Z,970.12
2016-08-21T04:20:09.919Z,970.09
2016-08-21T04:21:09.884Z,970.12
2016-08-21T04:22:09.849Z,970.15
2016-08-21T04:23:09.817Z,970.14
2016-08-21T04:24:09.782Z,970.15
2016-08-21T04:25:09.747Z,970.15
2016-08-21T04:26:09.713Z,970.16
2016-08-21T04:27:09.680Z,970.15
2016-08-21T04:28:09.645Z,970.13
2016-08-21T04:29:09.609Z,970.2
2016-08-21T04:30:09.576Z,970.15
2016-08-21T04:31:09.540Z,970.21
2016-08-21T04:32:09.509Z,970.21
2016-08-21T04:33:09.471Z,970.22
2016-08-21T04:34:09.438Z,970.24
2016-08-21T04:35:09.405Z,970.25
2016-08-21T04:36:09.369Z,970.23
2016-08-21T04:37:09.335Z,970.25
2016-08-21T04:38:09.302Z,970.27
2016-08-21T04:39:09.267Z,970.29
2016-08-21T04:40:09.232Z,970.31
2016-08-21T04:41:09.198Z,970.31
2016-08-21T04:42:09.165Z,970.29
2016-08-21T04:43:09.131Z,970.32
2016-08-21T04:44:09.097Z,970.28
2016-08-21T04:45:09.062Z,970.26
2016-08-21T04:46:09.028Z,970.26
2016-08-21T04:47:08.997Z,970.25
2016-08-21T04:48:08.959Z,970.29
2016-08-21T04:49:08.927Z,970.29
2016-08-21T04:50:08.893Z,970.29
2016-08-21T04:51:08.859Z,970.32
2016-08-21T04:52:08.824Z,970.36
2016-08-21T04:53:08.792Z,970.39
2016-08-21T04:54:08.761Z,970.38
2016-08-21T04:55:08.725Z,970.4
2016-08-21T04:56:08.691Z,970.41
2016-08-21T04:57:08.654Z,970.44
2016-08-21T04:58:08.619Z,970.45
2016-08-21T04:59:08.586Z,970.45
2016-08-21T05:00:08.554Z,970.47
2016-08-21T05:01:08.519Z,970.45
2016-08-21T05:02:08.486Z,970.47
2016-08-21T05:03:08.452Z,970.47
2016-08-21T05:04:08.416Z,970.47
2016-08-21T05:05:08.382Z,970.46
2016-08-21T05:06:08.349Z,970.5
2016-08-21T05:07:08.314Z,970.51
2016-08-21T05:08:08.284Z,970.51
2016-08-21T05:09:08.249Z,970.52
2016-08-21T05:10:08.214Z,970.54
2016-08-21T05:11:08.181Z,970.54
2016-08-21T05:12:08.148Z,970.53
2016-08-21T05:13:08.117Z,970.55
2016-08-21T05:14:08.080Z,970.58
2016-08-21T05:15:08.045Z,970.57
2016-08-21T05:16:08.012Z,970.58
2016-08-21T05:17:07.978Z,970.58
2016-08-21T05:18:07.944Z,970.58
2016-08-21T05:19:07.911Z,970.61
2016-08-21T05:20:07.877Z,970.61
2016-08-21T05:21:07.844Z,970.56
2016-08-21T05:22:07.809Z,970.57
2016-08-21T05:23:07.778Z,970.59
2016-08-21T05:24:07.742Z,970.59
2016-08-21T05:25:07.710Z,970.58
2016-08-21T05:26:07.677Z,970.59
2016-08-21T05:27:07.643Z,970.63
2016-08-21T05:28:07.608Z,970.62
2016-08-21T05:29:07.576Z,970.65
2016-08-21T05:30:07.544Z,970.67
2016-08-21T05:31:07.510Z,970.64
2016-08-21T05:32:07.476Z,970.66
2016-08-21T05:33:07.442Z,970.65
2016-08-21T05:34:07.410Z,970.66
2016-08-21T05:35:07.375Z,970.67
2016-08-21T05:36:07.343Z,970.66
2016-08-21T05:37:07.309Z,970.64
2016-08-21T05:38:07.277Z,970.67
2016-08-21T05:39:07.243Z,970.67
2016-08-21T05:40:07.207Z,970.66
2016-08-21T05:41:07.178Z,970.65
2016-08-21T05:42:07.140Z,970.67
2016-08-21T05:43:07.109Z,970.67
2016-08-21T05:44:07.075Z,970.66
2016-08-21T05:45:07.046Z,970.68
2016-08-21T05:46:07.008Z,970.71
2016-08-21T05:47:06.975Z,970.76
2016-08-21T05:48:06.944Z,970.77
2016-08-21T05:49:06.910Z,970.76
2016-08-21T05:50:06.876Z,970.72
2016-08-21T05:51:06.844Z,970.74
2016-08-21T05:52:06.811Z,970.73
2016-08-21T05:53:06.775Z,970.76
2016-08-21T05:54:06.743Z,970.79
2016-08-21T05:55:06.711Z,970.77
2016-08-21T05:56:06.677Z,970.73
2016-08-21T05:57:06.642Z,970.79
2016-08-21T05:58:06.612Z,970.75
2016-08-21T05:59:06.578Z,970.81
2016-08-21T06:00:06.544Z,970.8
2016-08-21T06:01:06.511Z,970.85
2016-08-21T06:02:06.477Z,970.79
2016-08-21T06:03:06.449Z,970.83
2016-08-21T06:04:06.412Z,970.83
2016-08-21T06:05:06.379Z,970.84
2016-08-21T06:06:06.344Z,970.82
2016-08-21T06:07:06.314Z,970.86
2016-08-21T06:08:06.278Z,970.8
2016-08-21T06:09:06.245Z,970.84
2016-08-21T06:10:06.212Z,970.82
2016-08-21T06:11:06.178Z,970.83
2016-08-21T06:12:06.145Z,970.91
2016-08-21T06:13:06.114Z,970.94
2016-08-21T06:14:06.080Z,970.9
2016-08-21T06:15:06.048Z,970.92
2016-08-21T06:16:06.016Z,970.89
2016-08-21T06:17:05.989Z,970.92
2016-08-21T06:18:05.948Z,970.91
2016-08-21T06:19:05.917Z,970.94
2016-08-21T06:20:05.885Z,970.89
2016-08-21T06:21:05.854Z,970.91
2016-08-21T06:22:05.817Z,970.92
2016-08-21T06:23:05.786Z,970.94
2016-08-21T06:24:05.754Z,970.91
2016-08-21T06:25:05.722Z,970.9
2016-08-21T06:26:05.687Z,970.88
2016-08-21T06:27:05.654Z,970.92
2016-08-21T06:28:05.622Z,970.91
2016-08-21T06:29:05.588Z,970.89
2016-08-21T06:30:05.557Z,970.92
2016-08-21T06:31:05.526Z,970.91
2016-08-21T06:32:05.491Z,970.89
2016-08-21T06:33:05.462Z,970.88
2016-08-21T06:34:05.427Z,970.91
2016-08-21T06:35:05.395Z,970.89
2016-08-21T06:36:05.362Z,970.86
2016-08-21T06:37:05.330Z,970.87
2016-08-21T06:38:05.298Z,970.86
2016-08-21T06:39:05.265Z,970.87
2016-08-21T06:40:05.232Z,970.91
2016-08-21T06:41:05.200Z,970.9
2016-08-21T06:42:05.168Z,970.9
2016-08-21T06:43:05.136Z,970.87
2016-08-21T06:44:05.105Z,970.86
2016-08-21T06:45:05.069Z,970.9
2016-08-21T06:46:05.038Z,970.94
2016-08-21T06:47:05.006Z,970.92
2016-08-21T06:48:04.972Z,970.89
2016-08-21T06:49:04.942Z,970.92
2016-08-21T06:50:04.909Z,970.91
2016-08-21T06:51:04.877Z,970.88
2016-08-21T06:52:04.847Z,970.89
2016-08-21T06:53:04.813Z,970.87
2016-08-21T06:54:04.781Z,970.87
2016-08-21T06:55:04.750Z,970.93
2016-08-21T06:56:04.716Z,970.9
2016-08-21T06:57:04.686Z,970.87
2016-08-21T06:58:04.658Z,970.85
2016-08-21T06:59:04.622Z,970.88
2016-08-21T07:00:04.591Z,970.87
2016-08-21T07:01:04.559Z,970.87
2016-08-21T07:02:04.526Z,970.9
2016-08-21T07:03:04.496Z,970.84
2016-08-21T07:04:04.465Z,970.87
2016-08-21T07:05:04.433Z,970.88
2016-08-21T07:06:04.400Z,970.83
2016-08-21T07:07:04.373Z,970.82
2016-08-21T07:08:04.340Z,970.86
2016-08-21T07:09:04.307Z,970.86
2016-08-21T07:10:04.274Z,970.84
2016-08-21T07:11:04.244Z,970.82
2016-08-21T07:12:04.212Z,970.84
2016-08-21T07:13:04.179Z,970.9
2016-08-21T07:14:04.148Z,970.9
2016-08-21T07:15:04.118Z,970.92
2016-08-21T07:16:04.085Z,970.82
2016-08-21T07:17:04.052Z,970.87
2016-08-21T07:18:04.022Z,970.87
2016-08-21T07:19:03.992Z,970.91
2016-08-21T07:20:03.960Z,970.92
2016-08-21T07:21:03.927Z,970.93
2016-08-21T07:22:03.895Z,970.92
2016-08-21T07:23:03.863Z,970.89
2016-08-21T07:24:03.833Z,970.95
2016-08-21T07:25:03.800Z,970.97
2016-08-21T07:26:03.767Z,970.97
2016-08-21T07:27:03.737Z,971.04
2016-08-21T07:28:03.703Z,971.03
2016-08-21T07:29:03.673Z,971.03
2016-08-21T07:30:03.641Z,971.05
2016-08-21T07:31:03.610Z,971.07
2016-08-21T07:32:03.579Z,971.11
2016-08-21T07:33:03.546Z,971.12
2016-08-21T07:34:03.516Z,971.13
2016-08-21T07:35:03.482Z,971.1
2016-08-21T07:36:03.452Z,971.07
2016-08-21T07:37:03.418Z,971.08
2016-08-21T07:38:03.390Z,971.11
2016-08-21T07:39:03.356Z,971.07
2016-08-21T07:40:03.327Z,971.07
2016-08-21T07:41:03.295Z,971.12
2016-08-21T07:42:03.264Z,971.08
2016-08-21T07:43:03.233Z,971.08
2016-08-21T07:44:03.200Z,971.13
2016-08-21T07:45:03.171Z,971.11
2016-08-21T07:46:03.138Z,971.16
2016-08-21T07:47:03.105Z,971.16
2016-08-21T07:48:03.075Z,971.18
2016-08-21T07:49:03.046Z,971.16
2016-08-21T07:50:03.013Z,971.18
2016-08-21T07:51:02.983Z,971.18
2016-08-21T07:52:02.952Z,971.17
2016-08-21T07:53:02.920Z,971.19
2016-08-21T07:54:02.890Z,971.2
2016-08-21T07:55:02.861Z,971.23
2016-08-21T07:56:02.829Z,971.21
2016-08-21T07:57:02.797Z,971.21
2016-08-21T07:58:02.767Z,971.24
2016-08-21T07:59:02.736Z,971.26
2016-08-21T08:00:02.705Z,971.29
2016-08-21T08:01:02.675Z,971.24
2016-08-21T08:02:02.643Z,971.24
2016-08-21T08:03:02.614Z,971.24
2016-08-21T08:04:02.581Z,971.21
2016-08-21T08:05:02.552Z,971.26
2016-08-21T08:06:02.520Z,971.3
2016-08-21T08:07:02.491Z,971.25
2016-08-21T08:08:02.460Z,971.28
2016-08-21T08:09:02.428Z,971.28
2016-08-21T08:10:02.400Z,971.3
2016-08-21T08:11:02.370Z,971.32
2016-08-21T08:12:02.337Z,971.36
2016-08-21T08:13:02.306Z,971.38
2016-08-21T08:14:02.276Z,971.39
2016-08-21T08:15:02.246Z,971.38
2016-08-21T08:16:02.217Z,971.4
2016-08-21T08:17:02.185Z,971.41
2016-08-21T08:18:02.161Z,971.45
2016-08-21T08:19:02.124Z,971.42
2016-08-21T08:20:02.096Z,971.41
2016-08-21T08:21:02.065Z,971.46
2016-08-21T08:22:02.035Z,971.5
2016-08-21T08:23:02.004Z,971.4
2016-08-21T08:24:01.975Z,971.39
2016-08-21T08:25:01.945Z,971.38
2016-08-21T08:26:01.915Z,971.4
2016-08-21T08:27:01.883Z,971.37
2016-08-21T08:28:01.855Z,971.38
2016-08-21T08:29:01.824Z,971.35
2016-08-21T08:30:01.795Z,971.38
2016-08-21T08:31:01.766Z,971.36
2016-08-21T08:32:01.737Z,971.35
2016-08-21T08:33:01.705Z,971.42
2016-08-21T08:34:01.676Z,971.4
2016-08-21T08:35:01.646Z,971.41
2016-08-21T08:36:01.617Z,971.39
2016-08-21T08:37:01.586Z,971.37
2016-08-21T08:38:01.558Z,971.42
2016-08-21T08:39:01.529Z,971.44
2016-08-21T08:40:01.498Z,971.43
2016-08-21T08:41:01.467Z,971.5
2016-08-21T08:42:01.440Z,971.52
2016-08-21T08:43:01.412Z,971.52
2016-08-21T08:44:01.381Z,971.6
2016-08-21T08:45:01.351Z,971.54
2016-08-21T08:46:01.322Z,971.48
2016-08-21T08:47:01.293Z,971.53
2016-08-21T08:48:01.261Z,971.56
2016-08-21T08:49:01.235Z,971.64
2016-08-21T08:50:01.205Z,971.67
2016-08-21T08:51:01.178Z,971.64
2016-08-21T08:52:01.148Z,971.81
2016-08-21T08:53:01.118Z,971.62
2016-08-21T08:54:01.092Z,971.64
2016-08-21T08:55:01.062Z,971.62
2016-08-21T08:56:01.034Z,971.63
2016-08-21T08:57:01.004Z,971.54
2016-08-21T08:58:00.978Z,971.58
2016-08-21T08:59:00.948Z,971.57
2016-08-21T09:00:00.923Z,971.53
2016-08-21T09:01:00.893Z,971.45
2016-08-21T09:02:00.866Z,971.48
2016-08-21T09:03:00.840Z,971.5
2016-08-21T09:04:00.810Z,971.58
2016-08-21T09:05:00.783Z,971.6
2016-08-21T09:06:00.754Z,971.57
2016-08-21T09:07:00.727Z,971.57
2016-08-21T09:08:00.705Z,971.64
2016-08-21T09:09:00.671Z,971.65
2016-08-21T09:10:00.646Z,971.74
2016-08-21T09:11:00.616Z,971.78
2016-08-21T09:12:00.589Z,971.87
2016-08-21T09:13:00.562Z,972.24
2016-08-21T09:14:00.535Z,972.31
2016-08-21T09:15:00.508Z,972.59
2016-08-21T09:16:00.482Z,972
2016-08-21T09:17:00.455Z,971.89
2016-08-21T09:18:00.430Z,971.86
2016-08-21T09:19:00.404Z,971.98
2016-08-21T09:20:00.379Z,971.88
2016-08-21T09:21:00.351Z,971.83
2016-08-21T09:22:00.333Z,971.85
2016-08-21T09:23:00.302Z,971.82
2016-08-21T09:24:00.279Z,972.25
2016-08-21T09:25:00.252Z,971.79
2016-08-21T09:26:00.232Z,971.83
2016-08-21T09:27:00.206Z,971.85
2016-08-21T09:28:00.179Z,972.74
2016-08-21T09:29:00.158Z,971.71
2016-08-21T09:30:00.133Z,971.7
2016-08-21T09:31:00.108Z,971.68
2016-08-21T09:32:00.084Z,971.64
2016-08-21T09:33:00.060Z,971.68
2016-08-21T09:34:00.040Z,971.64
2016-08-21T09:35:00.013Z,971.72
2016-08-21T09:35:59.987Z,971.67
2016-08-21T09:36:59.963Z,971.64
2016-08-21T09:37:59.937Z,971.67
2016-08-21T09:38:59.912Z,971.78
2016-08-21T09:39:59.889Z,971.71
2016-08-21T09:40:59.864Z,971.66
2016-08-21T09:41:59.839Z,971.89
2016-08-21T09:42:59.814Z,971.61
2016-08-21T09:43:59.792Z,971.55
2016-08-21T09:44:59.765Z,971.6
2016-08-21T09:45:59.743Z,971.6
2016-08-21T09:46:59.711Z,971.6
2016-08-21T09:47:59.689Z,971.61
2016-08-21T09:48:59.661Z,971.59
2016-08-21T09:49:59.635Z,971.58
2016-08-21T09:50:59.612Z,971.62
2016-08-21T09:51:59.584Z,971.64
2016-08-21T09:52:59.560Z,971.65
2016-08-21T09:53:59.534Z,971.66
2016-08-21T09:54:59.509Z,971.71
2016-08-21T09:55:59.486Z,971.62
2016-08-21T09:56:59.457Z,971.55
2016-08-21T09:57:59.430Z,971.7
2016-08-21T09:58:59.404Z,971.64
2016-08-21T09:59:59.378Z,971.57
2016-08-21T10:00:59.352Z,971.57
2016-08-21T10:01:59.326Z,971.6
2016-08-21T10:02:59.301Z,971.58
2016-08-21T10:03:59.276Z,971.64
2016-08-21T10:04:59.248Z,971.63
2016-08-21T10:05:59.223Z,971.71
2016-08-21T10:06:59.196Z,971.67
2016-08-21T10:07:59.171Z,971.61
2016-08-21T10:08:59.143Z,971.64
2016-08-21T10:09:59.123Z,971.73
2016-08-21T10:10:59.091Z,971.87
2016-08-21T10:11:59.065Z,971.87
2016-08-21T10:12:59.038Z,971.72
2016-08-21T10:13:59.013Z,971.64
2016-08-21T10:14:58.986Z,972.65
2016-08-21T10:15:58.958Z,973.7
2016-08-21T10:16:58.936Z,972.31
2016-08-21T10:17:58.910Z,972.61
2016-08-21T10:18:58.884Z,972.59
2016-08-21T10:19:58.864Z,971.78
2016-08-21T10:20:58.833Z,971.79
2016-08-21T10:21:58.807Z,971.89
2016-08-21T10:22:58.782Z,971.76
2016-08-21T10:23:58.762Z,971.71
2016-08-21T10:24:58.733Z,971.74
2016-08-21T10:25:58.708Z,971.81
2016-08-21T10:26:58.689Z,971.7
2016-08-21T10:27:58.659Z,972.12
2016-08-21T10:28:58.634Z,974.97
2016-08-21T10:29:58.611Z,972.18
2016-08-21T10:30:58.586Z,972.37
2016-08-21T10:31:58.561Z,972.04
2016-08-21T10:32:58.535Z,972.06
2016-08-21T10:33:58.512Z,971.86
2016-08-21T10:34:58.486Z,971.82
2016-08-21T10:35:58.464Z,971.83
2016-08-21T10:36:58.440Z,971.89
2016-08-21T10:37:58.414Z,971.82
2016-08-21T10:38:58.392Z,971.8
2016-08-21T10:39:58.368Z,971.79
2016-08-21T10:40:58.343Z,971.8
2016-08-21T10:41:58.320Z,971.96
2016-08-21T10:42:58.297Z,971.83
2016-08-21T10:43:58.272Z,972.23
2016-08-21T10:44:58.249Z,971.73
2016-08-21T10:45:58.225Z,971.79
2016-08-21T10:46:58.201Z,971.94
2016-08-21T10:47:58.175Z,974.02
2016-08-21T10:48:58.154Z,972.1
2016-08-21T10:49:58.128Z,973.99
2016-08-21T10:50:58.105Z,972.16
2016-08-21T10:51:58.080Z,972.95
2016-08-21T10:52:58.055Z,972.27
2016-08-21T10:53:58.034Z,972.75
2016-08-21T10:54:58.009Z,972.59
2016-08-21T10:55:57.988Z,972.61
2016-08-21T10:56:57.965Z,972.53
2016-08-21T10:57:57.944Z,972.48
2016-08-21T10:58:57.922Z,972.5
2016-08-21T10:59:57.899Z,972.42
2016-08-21T11:00:57.893Z,972.39
2016-08-21T11:01:57.858Z,972.4
2016-08-21T11:02:57.836Z,972.34
2016-08-21T11:03:57.820Z,972.4
2016-08-21T11:04:57.796Z,972.29
2016-08-21T11:05:57.775Z,972.27
2016-08-21T11:06:57.754Z,972.51
2016-08-21T11:07:57.735Z,972.78
2016-08-21T11:08:57.715Z,972.73
2016-08-21T11:09:57.699Z,972.65
2016-08-21T11:10:57.676Z,972.62
2016-08-21T11:11:57.655Z,972.58
2016-08-21T11:12:57.635Z,972.44
2016-08-21T11:13:57.615Z,972.35
2016-08-21T11:14:57.602Z,972.3
2016-08-21T11:15:57.577Z,972.16
2016-08-21T11:16:57.558Z,972.19
2016-08-21T11:17:57.538Z,972.2
2016-08-21T11:18:57.515Z,972.16
2016-08-21T11:19:57.498Z,972.03
2016-08-21T11:20:57.481Z,971.92
2016-08-21T11:21:57.460Z,971.87
2016-08-21T11:22:57.441Z,971.8
2016-08-21T11:23:57.418Z,971.74
2016-08-21T11:24:57.394Z,971.68
2016-08-21T11:25:57.376Z,971.73
2016-08-21T11:26:57.354Z,971.65
2016-08-21T11:27:57.334Z,971.59
2016-08-21T11:28:57.316Z,971.54
2016-08-21T11:29:57.291Z,971.55
2016-08-21T11:30:57.269Z,971.48
2016-08-21T11:31:57.248Z,971.48
2016-08-21T11:32:57.226Z,971.52
2016-08-21T11:33:57.205Z,971.51
2016-08-21T11:34:57.183Z,971.47
2016-08-21T11:35:57.158Z,971.4
2016-08-21T11:36:57.135Z,971.36
2016-08-21T11:37:57.110Z,971.36
2016-08-21T11:38:57.090Z,971.41
2016-08-21T11:39:57.065Z,971.31
2016-08-21T11:40:57.046Z,971.36
2016-08-21T11:41:57.017Z,971.44
2016-08-21T11:42:56.994Z,971.48
2016-08-21T11:43:56.968Z,971.46
2016-08-21T11:44:56.948Z,971.46
2016-08-21T11:45:56.920Z,971.46
2016-08-21T11:46:56.894Z,971.46
2016-08-21T11:47:56.870Z,971.46
2016-08-21T11:48:56.846Z,971.46
2016-08-21T11:49:56.821Z,971.43
2016-08-21T11:50:56.795Z,971.46
2016-08-21T11:51:56.771Z,971.43
2016-08-21T11:52:56.748Z,971.43
2016-08-21T11:53:56.720Z,971.37
2016-08-21T11:54:56.694Z,971.41
2016-08-21T11:55:56.672Z,971.4
2016-08-21T11:56:56.645Z,971.41
2016-08-21T11:57:56.616Z,971.39
2016-08-21T11:58:56.592Z,971.39
2016-08-21T11:59:56.567Z,971.33
2016-08-21T12:00:56.542Z,971.34
2016-08-21T12:01:56.516Z,971.33
2016-08-21T12:02:56.489Z,971.36
2016-08-21T12:03:56.463Z,971.39
2016-08-21T12:04:56.436Z,971.35
2016-08-21T12:05:56.411Z,971.44
2016-08-21T12:06:56.384Z,971.45
2016-08-21T12:07:56.361Z,971.39
2016-08-21T12:08:56.331Z,971.47
2016-08-21T12:09:56.306Z,971.52
2016-08-21T12:10:56.280Z,971.36
2016-08-21T12:11:56.255Z,971.36
2016-08-21T12:12:56.232Z,971.39
2016-08-21T12:13:56.200Z,971.47
2016-08-21T12:14:56.173Z,971.42
2016-08-21T12:15:56.147Z,971.42
2016-08-21T12:16:56.122Z,971.43
2016-08-21T12:17:56.096Z,971.47
2016-08-21T12:18:56.070Z,971.5
2016-08-21T12:19:56.042Z,971.52
2016-08-21T12:20:56.016Z,971.6
2016-08-21T12:21:55.990Z,971.56
2016-08-21T12:22:55.965Z,971.52
2016-08-21T12:23:55.937Z,971.55
2016-08-21T12:24:55.913Z,971.61
2016-08-21T12:25:55.885Z,971.53
2016-08-21T12:26:55.860Z,971.51
2016-08-21T12:27:55.835Z,971.52
2016-08-21T12:28:55.813Z,971.57
2016-08-21T12:29:55.781Z,971.56
2016-08-21T12:30:55.757Z,971.61